sensor_id;sensor_type;location;lat;lon;timestamp;temperature;humidity
15111;DHT22;7656;51.954;7.998;2023-10-13T00:01:37;17.60;99.90
15111;DHT22;7656;51.954;7.998;2023-10-13T00:05:58;17.50;99.90
15111;DHT22;7656;51.954;7.998;2023-10-13T00:10:23;17.60;99.90
15111;DHT22;7656;51.954;7.998;2023-10-13T00:14:45;17.70;99.90
15111;DHT22;7656;51.954;7.998;2023-10-13T00:19:06;17.60;99.90
15111;DHT22;7656;51.954;7.998;2023-10-13T00:23:27;17.60;99.90
15111;DHT22;7656;51.954;7.998;2023-10-13T00:27:48;17.70;99.90
15111;DHT22;7656;51.954;7.998;2023-10-13T00:32:12;17.70;99.90
15111;DHT22;7656;51.954;7.998;2023-10-13T00:36:33;17.70;99.90
15111;DHT22;7656;51.954;7.998;2023-10-13T00:40:55;17.80;99.90
15111;DHT22;7656;51.954;7.998;2023-10-13T00:45:16;17.80;99.90
15111;DHT22;7656;51.954;7.998;2023-10-13T00:49:38;17.80;99.90
15111;DHT22;7656;51.954;7.998;2023-10-13T00:54:04;17.80;99.90
15111;DHT22;7656;51.954;7.998;2023-10-13T00:58:33;17.80;99.90
15111;DHT22;7656;51.954;7.998;2023-10-13T01:02:55;17.90;99.90
15111;DHT22;7656;51.954;7.998;2023-10-13T01:07:16;17.90;99.90
15111;DHT22;7656;51.954;7.998;2023-10-13T01:11:42;18.00;99.90
15111;DHT22;7656;51.954;7.998;2023-10-13T01:16:09;18.10;99.90
15111;DHT22;7656;51.954;7.998;2023-10-13T01:20:31;18.10;99.90
15111;DHT22;7656;51.954;7.998;2023-10-13T01:24:54;18.20;99.90
15111;DHT22;7656;51.954;7.998;2023-10-13T01:29:25;18.20;99.90
15111;DHT22;7656;51.954;7.998;2023-10-13T01:33:51;18.10;99.90
15111;DHT22;7656;51.954;7.998;2023-10-13T01:38:15;18.10;99.90
15111;DHT22;7656;51.954;7.998;2023-10-13T01:42:36;18.10;99.90
15111;DHT22;7656;51.954;7.998;2023-10-13T01:46:57;18.00;99.90
15111;DHT22;7656;51.954;7.998;2023-10-13T01:51:19;17.90;99.90
15111;DHT22;7656;51.954;7.998;2023-10-13T01:55:44;18.00;99.90
15111;DHT22;7656;51.954;7.998;2023-10-13T02:00:05;18.00;99.90
15111;DHT22;7656;51.954;7.998;2023-10-13T02:04:42;17.90;99.90
15111;DHT22;7656;51.954;7.998;2023-10-13T02:09:10;18.00;99.90
15111;DHT22;7656;51.954;7.998;2023-10-13T02:13:34;17.90;99.90
15111;DHT22;7656;51.954;7.998;2023-10-13T02:18:02;17.80;99.90
15111;DHT22;7656;51.954;7.998;2023-10-13T02:22:23;17.80;99.90
15111;DHT22;7656;51.954;7.998;2023-10-13T02:26:49;18.00;99.90
15111;DHT22;7656;51.954;7.998;2023-10-13T02:31:10;18.00;99.90
15111;DHT22;7656;51.954;7.998;2023-10-13T02:35:32;17.90;99.90
15111;DHT22;7656;51.954;7.998;2023-10-13T02:40:02;17.90;99.90
15111;DHT22;7656;51.954;7.998;2023-10-13T02:44:23;17.90;99.90
15111;DHT22;7656;51.954;7.998;2023-10-13T02:48:54;17.80;99.90
15111;DHT22;7656;51.954;7.998;2023-10-13T02:53:18;17.70;99.90
15111;DHT22;7656;51.954;7.998;2023-10-13T02:57:40;17.70;99.90
15111;DHT22;7656;51.954;7.998;2023-10-13T03:02:02;17.60;99.90
15111;DHT22;7656;51.954;7.998;2023-10-13T03:06:38;17.70;99.90
15111;DHT22;7656;51.954;7.998;2023-10-13T03:11:01;17.60;99.90
15111;DHT22;7656;51.954;7.998;2023-10-13T03:15:26;17.70;99.90
15111;DHT22;7656;51.954;7.998;2023-10-13T03:19:51;17.70;99.90
15111;DHT22;7656;51.954;7.998;2023-10-13T03:24:13;17.70;99.90
15111;DHT22;7656;51.954;7.998;2023-10-13T03:28:34;17.80;99.90
15111;DHT22;7656;51.954;7.998;2023-10-13T03:32:55;17.90;99.90
15111;DHT22;7656;51.954;7.998;2023-10-13T03:37:18;17.80;99.90
15111;DHT22;7656;51.954;7.998;2023-10-13T03:41:40;17.70;99.90
15111;DHT22;7656;51.954;7.998;2023-10-13T03:46:02;17.60;99.90
15111;DHT22;7656;51.954;7.998;2023-10-13T03:50:28;17.60;99.90
15111;DHT22;7656;51.954;7.998;2023-10-13T03:54:52;17.60;99.90
15111;DHT22;7656;51.954;7.998;2023-10-13T03:59:14;17.60;99.90
15111;DHT22;7656;51.954;7.998;2023-10-13T04:03:37;17.60;99.90
15111;DHT22;7656;51.954;7.998;2023-10-13T04:08:02;17.60;99.90
15111;DHT22;7656;51.954;7.998;2023-10-13T04:12:43;17.60;99.90
15111;DHT22;7656;51.954;7.998;2023-10-13T04:17:22;17.70;99.90
15111;DHT22;7656;51.954;7.998;2023-10-13T04:21:44;17.70;99.90
15111;DHT22;7656;51.954;7.998;2023-10-13T04:26:21;17.80;99.90
15111;DHT22;7656;51.954;7.998;2023-10-13T04:30:47;17.90;99.90
15111;DHT22;7656;51.954;7.998;2023-10-13T04:35:09;17.90;99.90
15111;DHT22;7656;51.954;7.998;2023-10-13T04:39:39;18.00;99.90
15111;DHT22;7656;51.954;7.998;2023-10-13T04:44:00;18.00;99.90
15111;DHT22;7656;51.954;7.998;2023-10-13T04:48:40;18.00;99.90
15111;DHT22;7656;51.954;7.998;2023-10-13T04:53:07;18.00;99.90
15111;DHT22;7656;51.954;7.998;2023-10-13T04:57:48;18.00;99.90
15111;DHT22;7656;51.954;7.998;2023-10-13T05:02:14;17.90;99.90
15111;DHT22;7656;51.954;7.998;2023-10-13T05:06:53;17.70;99.90
15111;DHT22;7656;51.954;7.998;2023-10-13T05:11:33;17.60;99.90
15111;DHT22;7656;51.954;7.998;2023-10-13T05:16:13;17.70;99.90
15111;DHT22;7656;51.954;7.998;2023-10-13T05:20:55;17.40;99.90
15111;DHT22;7656;51.954;7.998;2023-10-13T05:25:38;17.50;99.90
15111;DHT22;7656;51.954;7.998;2023-10-13T05:30:18;17.30;99.90
15111;DHT22;7656;51.954;7.998;2023-10-13T05:34:58;17.40;99.90
15111;DHT22;7656;51.954;7.998;2023-10-13T05:39:37;17.40;99.90
15111;DHT22;7656;51.954;7.998;2023-10-13T05:44:17;17.50;99.90
15111;DHT22;7656;51.954;7.998;2023-10-13T05:48:56;17.50;99.90
15111;DHT22;7656;51.954;7.998;2023-10-13T05:53:20;17.50;99.90
15111;DHT22;7656;51.954;7.998;2023-10-13T05:57:59;17.50;99.90
15111;DHT22;7656;51.954;7.998;2023-10-13T06:02:39;17.70;99.90
15111;DHT22;7656;51.954;7.998;2023-10-13T06:07:18;17.60;99.90
15111;DHT22;7656;51.954;7.998;2023-10-13T06:11:58;17.60;99.90
15111;DHT22;7656;51.954;7.998;2023-10-13T06:16:38;17.60;99.90
15111;DHT22;7656;51.954;7.998;2023-10-13T06:21:17;17.50;99.90
15111;DHT22;7656;51.954;7.998;2023-10-13T06:25:59;17.40;99.90
15111;DHT22;7656;51.954;7.998;2023-10-13T06:30:38;17.50;99.90
15111;DHT22;7656;51.954;7.998;2023-10-13T06:34:59;17.40;99.90
15111;DHT22;7656;51.954;7.998;2023-10-13T06:39:39;17.50;99.90
15111;DHT22;7656;51.954;7.998;2023-10-13T06:44:00;17.50;99.90
15111;DHT22;7656;51.954;7.998;2023-10-13T06:48:21;17.40;99.90
15111;DHT22;7656;51.954;7.998;2023-10-13T06:52:43;17.40;99.90
15111;DHT22;7656;51.954;7.998;2023-10-13T06:57:04;17.50;99.90
15111;DHT22;7656;51.954;7.998;2023-10-13T07:01:31;17.50;99.90
15111;DHT22;7656;51.954;7.998;2023-10-13T07:05:59;17.50;99.90
15111;DHT22;7656;51.954;7.998;2023-10-13T07:10:20;17.60;99.90
15111;DHT22;7656;51.954;7.998;2023-10-13T07:14:50;17.70;99.90
15111;DHT22;7656;51.954;7.998;2023-10-13T07:19:19;17.70;99.90
15111;DHT22;7656;51.954;7.998;2023-10-13T07:23:42;17.80;99.90
15111;DHT22;7656;51.954;7.998;2023-10-13T07:28:21;17.90;99.90
15111;DHT22;7656;51.954;7.998;2023-10-13T07:32:43;18.10;99.90
15111;DHT22;7656;51.954;7.998;2023-10-13T07:37:07;18.10;99.90
15111;DHT22;7656;51.954;7.998;2023-10-13T07:41:33;18.00;99.90
15111;DHT22;7656;51.954;7.998;2023-10-13T07:45:57;18.00;99.90
15111;DHT22;7656;51.954;7.998;2023-10-13T07:50:20;18.20;99.90
15111;DHT22;7656;51.954;7.998;2023-10-13T07:54:47;18.20;99.90
15111;DHT22;7656;51.954;7.998;2023-10-13T07:59:28;18.40;99.90
15111;DHT22;7656;51.954;7.998;2023-10-13T08:03:49;18.50;99.90
15111;DHT22;7656;51.954;7.998;2023-10-13T08:08:25;18.80;99.90
15111;DHT22;7656;51.954;7.998;2023-10-13T08:12:46;19.10;99.90
15111;DHT22;7656;51.954;7.998;2023-10-13T08:17:08;19.30;99.90
15111;DHT22;7656;51.954;7.998;2023-10-13T08:21:33;19.50;99.90
15111;DHT22;7656;51.954;7.998;2023-10-13T08:25:54;19.40;99.90
15111;DHT22;7656;51.954;7.998;2023-10-13T08:30:47;19.40;99.90
15111;DHT22;7656;51.954;7.998;2023-10-13T08:35:14;19.60;99.90
15111;DHT22;7656;51.954;7.998;2023-10-13T08:39:55;19.90;99.90
15111;DHT22;7656;51.954;7.998;2023-10-13T08:44:24;20.50;99.90
15111;DHT22;7656;51.954;7.998;2023-10-13T09:20:59;22.90;99.90
15111;DHT22;7656;51.954;7.998;2023-10-13T09:25:40;22.50;99.90
15111;DHT22;7656;51.954;7.998;2023-10-13T09:30:29;21.80;99.90
15111;DHT22;7656;51.954;7.998;2023-10-13T09:34:52;21.30;99.90
15111;DHT22;7656;51.954;7.998;2023-10-13T09:39:15;21.30;99.90
15111;DHT22;7656;51.954;7.998;2023-10-13T09:43:50;21.70;99.90
15111;DHT22;7656;51.954;7.998;2023-10-13T09:48:13;22.40;99.90
15111;DHT22;7656;51.954;7.998;2023-10-13T09:52:45;23.00;99.90
15111;DHT22;7656;51.954;7.998;2023-10-13T09:57:17;23.10;99.90
15111;DHT22;7656;51.954;7.998;2023-10-13T10:01:45;22.70;99.90
15111;DHT22;7656;51.954;7.998;2023-10-13T10:06:21;22.60;99.90
15111;DHT22;7656;51.954;7.998;2023-10-13T10:11:00;22.90;99.90
15111;DHT22;7656;51.954;7.998;2023-10-13T10:15:35;23.40;99.90
15111;DHT22;7656;51.954;7.998;2023-10-13T10:20:04;24.20;99.90
15111;DHT22;7656;51.954;7.998;2023-10-13T10:24:35;24.50;99.90
15111;DHT22;7656;51.954;7.998;2023-10-13T10:28:57;24.70;99.90
15111;DHT22;7656;51.954;7.998;2023-10-13T10:33:30;25.00;99.90
15111;DHT22;7656;51.954;7.998;2023-10-13T10:37:54;24.90;99.90
15111;DHT22;7656;51.954;7.998;2023-10-13T10:42:32;24.60;99.90
15111;DHT22;7656;51.954;7.998;2023-10-13T10:46:53;23.90;99.90
15111;DHT22;7656;51.954;7.998;2023-10-13T10:51:18;24.20;99.90
15111;DHT22;7656;51.954;7.998;2023-10-13T10:55:41;24.30;99.90
15111;DHT22;7656;51.954;7.998;2023-10-13T11:00:04;24.40;99.90
15111;DHT22;7656;51.954;7.998;2023-10-13T11:04:35;24.40;99.90
15111;DHT22;7656;51.954;7.998;2023-10-13T11:09:33;24.60;99.90
15111;DHT22;7656;51.954;7.998;2023-10-13T11:13:57;24.50;99.90
15111;DHT22;7656;51.954;7.998;2023-10-13T11:18:34;24.30;99.90
15111;DHT22;7656;51.954;7.998;2023-10-13T11:23:01;24.40;99.90
15111;DHT22;7656;51.954;7.998;2023-10-13T11:27:30;24.50;99.90
15111;DHT22;7656;51.954;7.998;2023-10-13T11:32:10;24.70;99.90
15111;DHT22;7656;51.954;7.998;2023-10-13T11:36:40;24.70;99.90
15111;DHT22;7656;51.954;7.998;2023-10-13T11:41:03;24.50;99.90
15111;DHT22;7656;51.954;7.998;2023-10-13T11:45:27;24.30;99.90
15111;DHT22;7656;51.954;7.998;2023-10-13T11:49:56;24.30;99.90
15111;DHT22;7656;51.954;7.998;2023-10-13T11:54:20;24.40;99.90
15111;DHT22;7656;51.954;7.998;2023-10-13T11:58:43;24.30;99.90
15111;DHT22;7656;51.954;7.998;2023-10-13T12:03:06;24.20;99.90
15111;DHT22;7656;51.954;7.998;2023-10-13T12:07:46;24.20;99.90
15111;DHT22;7656;51.954;7.998;2023-10-13T12:12:09;24.10;99.90
15111;DHT22;7656;51.954;7.998;2023-10-13T12:16:30;24.00;99.90
15111;DHT22;7656;51.954;7.998;2023-10-13T12:20:55;23.90;99.90
15111;DHT22;7656;51.954;7.998;2023-10-13T12:25:18;24.10;99.90
15111;DHT22;7656;51.954;7.998;2023-10-13T12:29:54;24.50;99.90
15111;DHT22;7656;51.954;7.998;2023-10-13T12:34:17;24.70;99.90
15111;DHT22;7656;51.954;7.998;2023-10-13T12:38:52;25.00;99.90
15111;DHT22;7656;51.954;7.998;2023-10-13T12:43:33;25.50;99.90
15111;DHT22;7656;51.954;7.998;2023-10-13T12:48:12;27.50;99.90
15111;DHT22;7656;51.954;7.998;2023-10-13T12:52:52;28.00;99.90
15111;DHT22;7656;51.954;7.998;2023-10-13T12:57:16;28.70;99.90
15111;DHT22;7656;51.954;7.998;2023-10-13T13:01:37;29.60;99.90
15111;DHT22;7656;51.954;7.998;2023-10-13T13:06:02;30.10;99.90
15111;DHT22;7656;51.954;7.998;2023-10-13T13:10:28;29.60;99.90
15111;DHT22;7656;51.954;7.998;2023-10-13T13:14:57;29.40;99.90
15111;DHT22;7656;51.954;7.998;2023-10-13T13:19:21;29.30;99.90
15111;DHT22;7656;51.954;7.998;2023-10-13T13:23:46;29.20;99.90
15111;DHT22;7656;51.954;7.998;2023-10-13T13:28:08;28.90;99.90
15111;DHT22;7656;51.954;7.998;2023-10-13T13:32:31;29.10;99.90
15111;DHT22;7656;51.954;7.998;2023-10-13T13:36:52;28.90;99.90
15111;DHT22;7656;51.954;7.998;2023-10-13T13:41:17;29.20;99.90
15111;DHT22;7656;51.954;7.998;2023-10-13T13:45:39;28.20;99.90
15111;DHT22;7656;51.954;7.998;2023-10-13T13:50:02;27.50;99.90
15111;DHT22;7656;51.954;7.998;2023-10-13T13:54:35;27.60;99.90
15111;DHT22;7656;51.954;7.998;2023-10-13T13:58:56;27.60;99.90
15111;DHT22;7656;51.954;7.998;2023-10-13T14:03:17;27.40;99.90
15111;DHT22;7656;51.954;7.998;2023-10-13T14:07:54;27.00;99.90
15111;DHT22;7656;51.954;7.998;2023-10-13T14:12:15;25.80;99.90
15111;DHT22;7656;51.954;7.998;2023-10-13T14:17:02;25.30;99.90
15111;DHT22;7656;51.954;7.998;2023-10-13T14:21:27;25.00;99.90
15111;DHT22;7656;51.954;7.998;2023-10-13T14:25:48;24.90;99.90
15111;DHT22;7656;51.954;7.998;2023-10-13T14:30:12;24.90;99.90
15111;DHT22;7656;51.954;7.998;2023-10-13T14:34:41;24.80;99.90
15111;DHT22;7656;51.954;7.998;2023-10-13T14:39:05;24.70;99.90
15111;DHT22;7656;51.954;7.998;2023-10-13T14:43:29;24.40;99.90
15111;DHT22;7656;51.954;7.998;2023-10-13T14:47:50;24.40;99.90
15111;DHT22;7656;51.954;7.998;2023-10-13T14:52:13;24.30;99.90
15111;DHT22;7656;51.954;7.998;2023-10-13T14:56:34;24.20;99.90
15111;DHT22;7656;51.954;7.998;2023-10-13T15:00:55;24.10;99.90
15111;DHT22;7656;51.954;7.998;2023-10-13T15:05:19;24.00;99.90
15111;DHT22;7656;51.954;7.998;2023-10-13T15:09:40;23.90;99.90
15111;DHT22;7656;51.954;7.998;2023-10-13T15:14:04;23.80;99.90
15111;DHT22;7656;51.954;7.998;2023-10-13T15:18:28;23.70;99.90
15111;DHT22;7656;51.954;7.998;2023-10-13T15:22:49;23.70;99.90
15111;DHT22;7656;51.954;7.998;2023-10-13T15:27:14;23.60;99.90
15111;DHT22;7656;51.954;7.998;2023-10-13T15:31:35;23.60;99.90
15111;DHT22;7656;51.954;7.998;2023-10-13T15:35:56;23.60;99.90
15111;DHT22;7656;51.954;7.998;2023-10-13T15:40:17;23.50;99.90
15111;DHT22;7656;51.954;7.998;2023-10-13T15:44:39;23.40;99.90
15111;DHT22;7656;51.954;7.998;2023-10-13T15:49:03;23.40;99.90
15111;DHT22;7656;51.954;7.998;2023-10-13T15:53:27;23.30;99.90
15111;DHT22;7656;51.954;7.998;2023-10-13T15:57:48;23.40;99.90
15111;DHT22;7656;51.954;7.998;2023-10-13T16:02:13;23.30;99.90
15111;DHT22;7656;51.954;7.998;2023-10-13T16:06:38;23.10;99.90
15111;DHT22;7656;51.954;7.998;2023-10-13T16:11:04;23.00;99.90
15111;DHT22;7656;51.954;7.998;2023-10-13T16:15:28;22.80;99.90
15111;DHT22;7656;51.954;7.998;2023-10-13T16:19:49;22.80;99.90
15111;DHT22;7656;51.954;7.998;2023-10-13T16:24:11;22.80;99.90
15111;DHT22;7656;51.954;7.998;2023-10-13T16:28:34;22.70;99.90
15111;DHT22;7656;51.954;7.998;2023-10-13T16:32:56;22.60;99.90
15111;DHT22;7656;51.954;7.998;2023-10-13T16:37:17;22.50;99.90
15111;DHT22;7656;51.954;7.998;2023-10-13T16:41:38;22.50;99.90
15111;DHT22;7656;51.954;7.998;2023-10-13T16:46:02;22.40;99.90
15111;DHT22;7656;51.954;7.998;2023-10-13T16:50:32;22.40;99.90
15111;DHT22;7656;51.954;7.998;2023-10-13T16:54:58;22.30;99.90
15111;DHT22;7656;51.954;7.998;2023-10-13T16:59:19;22.30;99.90
15111;DHT22;7656;51.954;7.998;2023-10-13T17:03:42;22.20;99.90
15111;DHT22;7656;51.954;7.998;2023-10-13T17:08:07;22.20;99.90
15111;DHT22;7656;51.954;7.998;2023-10-13T17:12:28;22.10;99.90
15111;DHT22;7656;51.954;7.998;2023-10-13T17:16:50;22.10;99.90
15111;DHT22;7656;51.954;7.998;2023-10-13T17:21:22;22.10;99.90
15111;DHT22;7656;51.954;7.998;2023-10-13T17:25:45;22.10;99.90
15111;DHT22;7656;51.954;7.998;2023-10-13T17:30:06;22.10;99.90
15111;DHT22;7656;51.954;7.998;2023-10-13T17:34:29;22.00;99.90
15111;DHT22;7656;51.954;7.998;2023-10-13T17:38:50;21.90;99.90
15111;DHT22;7656;51.954;7.998;2023-10-13T17:43:12;21.80;99.90
15111;DHT22;7656;51.954;7.998;2023-10-13T17:47:33;21.80;99.90
15111;DHT22;7656;51.954;7.998;2023-10-13T17:51:57;21.70;99.90
15111;DHT22;7656;51.954;7.998;2023-10-13T17:56:18;21.50;99.90
15111;DHT22;7656;51.954;7.998;2023-10-13T18:00:40;21.40;99.90
15111;DHT22;7656;51.954;7.998;2023-10-13T18:05:04;21.30;99.90
15111;DHT22;7656;51.954;7.998;2023-10-13T18:09:25;21.10;99.90
15111;DHT22;7656;51.954;7.998;2023-10-13T18:13:48;21.20;99.90
15111;DHT22;7656;51.954;7.998;2023-10-13T18:18:09;21.10;99.90
15111;DHT22;7656;51.954;7.998;2023-10-13T18:22:30;21.00;99.90
15111;DHT22;7656;51.954;7.998;2023-10-13T18:26:52;20.80;99.90
15111;DHT22;7656;51.954;7.998;2023-10-13T18:31:14;20.60;99.90
15111;DHT22;7656;51.954;7.998;2023-10-13T18:35:35;20.70;99.90
15111;DHT22;7656;51.954;7.998;2023-10-13T18:39:58;20.70;99.90
15111;DHT22;7656;51.954;7.998;2023-10-13T18:44:19;20.60;99.90
15111;DHT22;7656;51.954;7.998;2023-10-13T18:48:44;20.50;99.90
15111;DHT22;7656;51.954;7.998;2023-10-13T18:53:06;20.40;99.90
15111;DHT22;7656;51.954;7.998;2023-10-13T18:57:30;20.10;99.90
15111;DHT22;7656;51.954;7.998;2023-10-13T19:01:51;20.00;99.90
15111;DHT22;7656;51.954;7.998;2023-10-13T19:06:13;20.10;99.90
15111;DHT22;7656;51.954;7.998;2023-10-13T19:10:36;20.10;99.90
15111;DHT22;7656;51.954;7.998;2023-10-13T19:14:57;19.90;99.90
15111;DHT22;7656;51.954;7.998;2023-10-13T19:19:18;19.80;99.90
15111;DHT22;7656;51.954;7.998;2023-10-13T19:23:48;19.70;99.90
15111;DHT22;7656;51.954;7.998;2023-10-13T19:28:13;19.60;99.90
15111;DHT22;7656;51.954;7.998;2023-10-13T19:32:34;19.50;99.90
15111;DHT22;7656;51.954;7.998;2023-10-13T19:36:59;19.50;99.90
15111;DHT22;7656;51.954;7.998;2023-10-13T19:41:25;19.60;99.90
15111;DHT22;7656;51.954;7.998;2023-10-13T19:45:46;19.50;99.90
15111;DHT22;7656;51.954;7.998;2023-10-13T19:50:09;19.40;99.90
15111;DHT22;7656;51.954;7.998;2023-10-13T19:54:33;19.40;99.90
15111;DHT22;7656;51.954;7.998;2023-10-13T19:58:55;19.40;99.90
15111;DHT22;7656;51.954;7.998;2023-10-13T20:03:16;19.20;99.90
15111;DHT22;7656;51.954;7.998;2023-10-13T20:07:40;19.20;99.90
15111;DHT22;7656;51.954;7.998;2023-10-13T20:12:02;19.20;99.90
15111;DHT22;7656;51.954;7.998;2023-10-13T20:16:23;19.30;99.90
15111;DHT22;7656;51.954;7.998;2023-10-13T20:20:45;19.40;99.90
15111;DHT22;7656;51.954;7.998;2023-10-13T20:25:06;19.50;99.90
15111;DHT22;7656;51.954;7.998;2023-10-13T20:29:28;19.60;99.90
15111;DHT22;7656;51.954;7.998;2023-10-13T20:33:49;19.60;99.90
15111;DHT22;7656;51.954;7.998;2023-10-13T20:38:10;19.70;99.90
15111;DHT22;7656;51.954;7.998;2023-10-13T20:42:31;19.70;99.90
15111;DHT22;7656;51.954;7.998;2023-10-13T20:46:55;19.30;99.90
15111;DHT22;7656;51.954;7.998;2023-10-13T20:51:17;19.00;99.90
15111;DHT22;7656;51.954;7.998;2023-10-13T20:55:38;18.70;99.90
15111;DHT22;7656;51.954;7.998;2023-10-13T21:00:02;18.60;99.90
15111;DHT22;7656;51.954;7.998;2023-10-13T21:04:24;18.20;99.90
15111;DHT22;7656;51.954;7.998;2023-10-13T21:08:46;18.00;99.90
15111;DHT22;7656;51.954;7.998;2023-10-13T21:13:07;17.80;99.90
15111;DHT22;7656;51.954;7.998;2023-10-13T21:17:31;17.70;99.90
15111;DHT22;7656;51.954;7.998;2023-10-13T21:21:52;17.70;99.90
15111;DHT22;7656;51.954;7.998;2023-10-13T21:26:19;17.60;99.90
15111;DHT22;7656;51.954;7.998;2023-10-13T21:30:41;17.60;99.90
15111;DHT22;7656;51.954;7.998;2023-10-13T21:35:02;17.60;99.90
15111;DHT22;7656;51.954;7.998;2023-10-13T21:39:24;17.70;99.90
15111;DHT22;7656;51.954;7.998;2023-10-13T21:43:45;17.70;99.90
15111;DHT22;7656;51.954;7.998;2023-10-13T21:48:06;17.80;99.90
15111;DHT22;7656;51.954;7.998;2023-10-13T21:52:30;17.80;99.90
15111;DHT22;7656;51.954;7.998;2023-10-13T21:56:51;17.80;99.90
15111;DHT22;7656;51.954;7.998;2023-10-13T22:01:14;17.80;99.90
15111;DHT22;7656;51.954;7.998;2023-10-13T22:05:42;17.80;99.90
15111;DHT22;7656;51.954;7.998;2023-10-13T22:10:06;17.80;99.90
15111;DHT22;7656;51.954;7.998;2023-10-13T22:14:27;17.70;99.90
15111;DHT22;7656;51.954;7.998;2023-10-13T22:18:49;17.60;99.90
15111;DHT22;7656;51.954;7.998;2023-10-13T22:23:10;17.60;99.90
15111;DHT22;7656;51.954;7.998;2023-10-13T22:27:32;17.60;99.90
15111;DHT22;7656;51.954;7.998;2023-10-13T22:31:53;17.50;99.90
15111;DHT22;7656;51.954;7.998;2023-10-13T22:36:15;17.50;99.90
15111;DHT22;7656;51.954;7.998;2023-10-13T22:40:42;17.50;99.90
15111;DHT22;7656;51.954;7.998;2023-10-13T22:45:04;17.50;99.90
15111;DHT22;7656;51.954;7.998;2023-10-13T22:49:25;17.60;99.90
15111;DHT22;7656;51.954;7.998;2023-10-13T22:53:46;17.60;99.90
15111;DHT22;7656;51.954;7.998;2023-10-13T22:58:07;17.70;99.90
15111;DHT22;7656;51.954;7.998;2023-10-13T23:02:30;17.80;99.90
15111;DHT22;7656;51.954;7.998;2023-10-13T23:06:51;17.80;99.90
15111;DHT22;7656;51.954;7.998;2023-10-13T23:11:16;17.80;99.90
15111;DHT22;7656;51.954;7.998;2023-10-13T23:15:52;17.90;99.90
15111;DHT22;7656;51.954;7.998;2023-10-13T23:20:14;18.00;99.90
15111;DHT22;7656;51.954;7.998;2023-10-13T23:24:39;18.00;99.90
15111;DHT22;7656;51.954;7.998;2023-10-13T23:29:00;18.10;99.90
15111;DHT22;7656;51.954;7.998;2023-10-13T23:33:21;18.20;99.90
15111;DHT22;7656;51.954;7.998;2023-10-13T23:37:43;18.20;99.90
15111;DHT22;7656;51.954;7.998;2023-10-13T23:42:04;18.40;99.90
15111;DHT22;7656;51.954;7.998;2023-10-13T23:46:27;18.50;99.90
15111;DHT22;7656;51.954;7.998;2023-10-13T23:50:55;18.60;99.90
15111;DHT22;7656;51.954;7.998;2023-10-13T23:55:20;18.60;99.90
15111;DHT22;7656;51.954;7.998;2023-10-13T23:59:41;18.70;99.90
